Current Conditions
Clear
Conditions



Pressure
29.85 (inHG) - 1010.82 (mb)
Visibility

10.0 (miles) - 16.1 (km)
Temperature
93  °F
Temperature
64  °F
Dewpoint
39  %
 Humidity
Wind Speed
9  kts
10  mph
16  km/h
4.5  m/s
Wind Direction
N
45°
E
90°
135°
S
180°
225°
W
270°
315°
 240°

West South
West
Airport Data
KAIK
Aiken Regional Airport
Metar :KAIK 192035Z AUTO 24009G17KT 10SM CLR 34/18 A2985 RMK AO2 T03430176
Fri 20th May 00:35 am
Raw Metar Info
Raw METAR is the most common format in the world for the transmission of observational weather data. It is highly standardized through the International Civil Aviation Organization (ICAO), which allows it to be understood throughout most of the world.
API Info
Data Provided by
https://www.checkwx.com/weather/KAIK

Aviation Weather providing METAR, TAF, AIRMET, SIGMET and OUTLOOK Weather Reports
© Info
CSS/SVG/PHP scripts were developed by weather34.com for use in the weather34 template © 2015-2022

Guide Info provided by Metar-Wikipedia